Wetterstation Vordersexau
Wetterdaten: Woche 07.07.14 - 13.07.14 (KW28)
Datum Zeit Temp. A. Feuchte A. Luftdruck Regen Wind Richtung Taupunkt Windchill Windben
07.07.2014 00:00 16,9 C 82 % 984,7 hPa 0,0 l/m 0,0 km/h O 13,8 C 16,9 C 0,0 km/h
07.07.2014 01:00 16,8 C 81 % 985,8 hPa 0,0 l/m 0,0 km/h SO 13,5 C 16,8 C 0,0 km/h
07.07.2014 02:00 16,4 C 81 % 985,8 hPa 0,0 l/m 0,0 km/h SO 13,1 C 16,4 C 0,0 km/h
07.07.2014 03:00 16,1 C 81 % 985,9 hPa 0,0 l/m 0,0 km/h NO 12,8 C 16,1 C 0,0 km/h
07.07.2014 04:00 15,9 C 79 % 986,0 hPa 0,0 l/m 0,0 km/h SO 12,3 C 15,9 C 0,0 km/h
07.07.2014 05:00 15,9 C 78 % 986,4 hPa 0,2 l/m 1,9 km/h N-NO 12,1 C 15,9 C 1,1 km/h
07.07.2014 06:00 16,2 C 79 % 986,7 hPa 0,0 l/m 0,0 km/h N-NW 12,6 C 16,2 C 0,0 km/h
07.07.2014 07:00 16,3 C 79 % 987,3 hPa 0,0 l/m 0,0 km/h N-NW 12,6 C 16,3 C 0,0 km/h
07.07.2014 08:00 16,8 C 80 % 987,4 hPa 0,2 l/m 0,0 km/h N 13,3 C 16,8 C 0,0 km/h
07.07.2014 09:00 16,2 C 79 % 987,7 hPa 0,6 l/m 0,0 km/h N-NO 12,6 C 16,2 C 0,0 km/h
07.07.2014 10:00 20,6 C 83 % 987,6 hPa 0,0 l/m 1,8 km/h W-NW 17,6 C 20,6 C 1,8 km/h
07.07.2014 11:00 21,3 C 77 % 987,5 hPa 0,0 l/m 0,0 km/h NW 17,1 C 21,3 C 0,0 km/h
07.07.2014 12:00 21,3 C 77 % 987,1 hPa 0,0 l/m 0,0 km/h N 17,1 C 21,3 C 0,0 km/h
07.07.2014 13:00 25,4 C 67 % 986,9 hPa 0,0 l/m 18,1 km/h NW 18,8 C 23,4 C 10,1 km/h
07.07.2014 14:00 25,3 C 62 % 985,5 hPa 0,0 l/m 0,0 km/h NW 17,5 C 25,3 C 0,0 km/h
07.07.2014 15:00 25,4 C 61 % 984,6 hPa 0,0 l/m 8,4 km/h W-NW 17,3 C 24,9 C 4,7 km/h
07.07.2014 16:00 26,6 C 58 % 984,2 hPa 0,0 l/m 12,3 km/h N-NO 17,6 C 25,6 C 6,8 km/h
07.07.2014 17:00 23,1 C 68 % 984,2 hPa 0,0 l/m 9,7 km/h N 16,9 C 22,1 C 5,4 km/h
07.07.2014 18:00 21,4 C 72 % 984,2 hPa 0,0 l/m 0,0 km/h W-SW 16,1 C 21,4 C 0,0 km/h
07.07.2014 19:00 19,8 C 77 % 983,5 hPa 0,0 l/m 0,0 km/h S 15,6 C 19,8 C 0,0 km/h
07.07.2014 20:00 18,2 C 83 % 983,7 hPa 0,3 l/m 0,0 km/h S 15,3 C 18,2 C 0,0 km/h
07.07.2014 21:00 17,8 C 83 % 983,3 hPa 0,6 l/m 0,0 km/h W-SW 14,9 C 17,8 C 0,0 km/h
07.07.2014 22:00 17,9 C 81 % 983,7 hPa 0,3 l/m 1,8 km/h O-NO 14,6 C 17,9 C 1,8 km/h
07.07.2014 23:00 17,2 C 79 % 982,7 hPa 0,0 l/m 0,0 km/h SO 13,5 C 17,2 C 0,0 km/h
08.07.2014 00:00 16,4 C 79 % 982,4 hPa 0,0 l/m 0,0 km/h SO 12,7 C 16,4 C 0,0 km/h
08.07.2014 01:00 16,3 C 78 % 982,2 hPa 0,0 l/m 0,0 km/h W-SW 12,5 C 16,3 C 0,0 km/h
08.07.2014 02:00 16,6 C 77 % 981,9 hPa 0,0 l/m 0,0 km/h W 12,5 C 16,6 C 0,0 km/h
08.07.2014 03:00 16,4 C 75 % 981,5 hPa 0,2 l/m 5,8 km/h W 12,0 C 16,4 C 5,8 km/h
08.07.2014 04:00 15,4 C 77 % 981,2 hPa 0,3 l/m 5,0 km/h SW 11,4 C 15,4 C 5,0 km/h
08.07.2014 05:00 15,4 C 83 % 981,1 hPa 0,0 l/m 25,3 km/h S-SW 12,5 C 9,1 C 14,0 km/h
08.07.2014 06:00 14,8 C 83 % 981,2 hPa 0,0 l/m 5,2 km/h W 11,9 C 14,8 C 2,9 km/h
08.07.2014 07:00 14,4 C 81 % 981,5 hPa 0,2 l/m 22,7 km/h W-SW 11,2 C 8,3 C 12,6 km/h
08.07.2014 08:00 14,1 C 79 % 981,5 hPa 0,3 l/m 18,1 km/h W-SW 10,5 C 9,1 C 10,1 km/h
08.07.2014 09:00 14,2 C 78 % 981,9 hPa 0,2 l/m 11,7 km/h W-SW 10,4 C 11,5 C 6,5 km/h
08.07.2014 10:00 14,6 C 77 % 982,2 hPa 0,3 l/m 24,0 km/h W 10,6 C 8,3 C 13,3 km/h
08.07.2014 11:00 15,1 C 78 % 982,6 hPa 0,2 l/m 13,0 km/h W-SW 11,3 C 12,0 C 7,2 km/h
08.07.2014 12:00 15,2 C 80 % 982,8 hPa 0,2 l/m 8,4 km/h W-NW 11,8 C 14,1 C 4,7 km/h
08.07.2014 13:00 15,7 C 84 % 983,2 hPa 0,0 l/m 0,0 km/h W 13,0 C 15,7 C 0,0 km/h
08.07.2014 14:00 15,8 C 84 % 983,5 hPa 0,2 l/m 0,0 km/h W-SW 13,1 C 15,8 C 0,0 km/h
08.07.2014 15:00 16,8 C 82 % 983,1 hPa 0,0 l/m 0,0 km/h W 13,7 C 16,8 C 0,0 km/h
08.07.2014 16:00 15,3 C 84 % 983,4 hPa 0,5 l/m 9,7 km/h W 12,6 C 13,6 C 5,4 km/h
08.07.2014 17:00 15,7 C 82 % 983,2 hPa 0,0 l/m 0,0 km/h W 12,6 C 15,7 C 0,0 km/h
08.07.2014 18:00 14,5 C 84 % 983,3 hPa 0,3 l/m 0,0 km/h S-SW 11,8 C 14,5 C 0,0 km/h
08.07.2014 19:00 15,1 C 84 % 983,2 hPa 0,0 l/m 0,0 km/h SW 12,4 C 15,1 C 0,0 km/h
08.07.2014 20:00 14,8 C 84 % 983,5 hPa 0,0 l/m 0,0 km/h W-SW 12,1 C 14,8 C 0,0 km/h
08.07.2014 21:00 13,9 C 85 % 983,5 hPa 0,0 l/m 10,4 km/h W-SW 11,4 C 11,7 C 10,4 km/h
08.07.2014 22:00 13,7 C 84 % 983,9 hPa 0,0 l/m 1,1 km/h W-SW 11,0 C 13,7 C 1,1 km/h
08.07.2014 23:00 13,6 C 84 % 983,7 hPa 0,0 l/m 1,1 km/h SW 10,9 C 13,6 C 1,1 km/h
09.07.2014 00:00 13,4 C 82 % 983,9 hPa 0,0 l/m 3,6 km/h SW 10,4 C 13,4 C 3,6 km/h
09.07.2014 01:00 13,5 C 83 % 983,8 hPa 0,0 l/m 2,9 km/h SW 10,7 C 13,5 C 2,9 km/h
09.07.2014 02:00 13,1 C 81 % 983,4 hPa 0,0 l/m 0,0 km/h W-SW 9,9 C 13,1 C 0,0 km/h
09.07.2014 03:00 12,9 C 80 % 983,5 hPa 0,0 l/m 1,4 km/h W 9,5 C 12,9 C 1,4 km/h
09.07.2014 04:00 12,7 C 81 % 982,9 hPa 0,0 l/m 0,0 km/h W-SW 9,5 C 12,7 C 0,0 km/h
09.07.2014 05:00 12,9 C 81 % 982,7 hPa 0,0 l/m 0,0 km/h W 9,7 C 12,9 C 0,0 km/h
09.07.2014 06:00 12,9 C 81 % 982,5 hPa 0,0 l/m 0,0 km/h W 9,7 C 12,9 C 0,0 km/h
09.07.2014 07:00 12,9 C 81 % 982,5 hPa 0,0 l/m 0,0 km/h W 9,7 C 12,9 C 0,0 km/h
09.07.2014 08:00 12,9 C 82 % 982,9 hPa 0,0 l/m 0,0 km/h W-SW 9,9 C 12,9 C 0,0 km/h
09.07.2014 09:00 12,8 C 81 % 982,8 hPa 0,2 l/m 0,0 km/h W-NW 9,6 C 12,8 C 0,0 km/h
09.07.2014 10:00 13,0 C 81 % 983,1 hPa 0,0 l/m 3,2 km/h W-NW 9,8 C 13,0 C 1,8 km/h
09.07.2014 11:00 12,4 C 83 % 983,0 hPa 0,3 l/m 3,2 km/h W 9,6 C 12,4 C 1,8 km/h
09.07.2014 12:00 13,9 C 85 % 983,1 hPa 0,2 l/m 0,0 km/h W-SW 11,4 C 13,9 C 0,0 km/h
09.07.2014 13:00 13,1 C 85 % 983,5 hPa 0,2 l/m 0,0 km/h S-SW 10,6 C 13,1 C 0,0 km/h
09.07.2014 14:00 13,2 C 85 % 983,6 hPa 0,3 l/m 1,3 km/h W-SW 10,7 C 13,2 C 0,7 km/h
09.07.2014 15:00 13,2 C 85 % 983,5 hPa 0,2 l/m 3,9 km/h S-SO 10,7 C 13,2 C 2,2 km/h
09.07.2014 16:00 13,1 C 85 % 983,2 hPa 0,2 l/m 0,0 km/h SO 10,6 C 13,1 C 0,0 km/h
09.07.2014 17:00 12,7 C 85 % 982,9 hPa 0,5 l/m 0,0 km/h SW 10,2 C 12,7 C 0,0 km/h
09.07.2014 18:00 13,2 C 85 % 982,5 hPa 0,2 l/m 2,6 km/h S-SW 10,7 C 13,2 C 1,4 km/h
09.07.2014 19:00 12,8 C 84 % 982,1 hPa 0,0 l/m 7,8 km/h W-SW 10,2 C 11,9 C 4,3 km/h
09.07.2014 20:00 12,8 C 84 % 982,2 hPa 0,0 l/m 8,4 km/h SW 10,2 C 11,6 C 4,7 km/h
09.07.2014 21:00 12,1 C 84 % 982,0 hPa 0,0 l/m 5,8 km/h S 9,5 C 12,1 C 5,8 km/h
09.07.2014 22:00 11,3 C 83 % 981,8 hPa 0,0 l/m 2,2 km/h W 8,5 C 11,3 C 2,2 km/h
09.07.2014 23:00 11,4 C 84 % 981,2 hPa 0,0 l/m 6,8 km/h S-SW 8,8 C 11,1 C 6,8 km/h
10.07.2014 00:00 11,4 C 85 % 981,0 hPa 0,0 l/m 12,6 km/h S-SW 9,0 C 7,8 C 12,6 km/h
10.07.2014 01:00 11,1 C 84 % 980,4 hPa 0,0 l/m 5,4 km/h SW 8,5 C 11,1 C 5,4 km/h
10.07.2014 02:00 11,1 C 83 % 979,8 hPa 0,0 l/m 5,0 km/h S 8,3 C 11,1 C 5,0 km/h
10.07.2014 03:00 11,1 C 81 % 979,6 hPa 0,2 l/m 4,0 km/h S-SW 8,0 C 11,1 C 4,0 km/h
10.07.2014 04:00 11,3 C 80 % 979,2 hPa 0,0 l/m 10,8 km/h S-SW 8,0 C 8,6 C 10,8 km/h
10.07.2014 05:00 11,4 C 78 % 979,2 hPa 0,2 l/m 15,6 km/h SW 7,7 C 6,6 C 8,6 km/h
10.07.2014 06:00 11,6 C 77 % 979,1 hPa 0,0 l/m 7,1 km/h S 7,7 C 11,1 C 4,0 km/h
10.07.2014 07:00 12,1 C 76 % 979,1 hPa 0,2 l/m 3,9 km/h SW 8,0 C 12,1 C 2,2 km/h
10.07.2014 08:00 12,5 C 75 % 979,5 hPa 0,0 l/m 1,3 km/h S-SW 8,2 C 12,5 C 0,7 km/h
10.07.2014 09:00 13,2 C 75 % 979,8 hPa 0,2 l/m 0,6 km/h S-SW 8,9 C 13,2 C 0,4 km/h
10.07.2014 10:00 14,4 C 77 % 980,0 hPa 0,0 l/m 7,1 km/h W-SW 10,4 C 14,0 C 4,0 km/h
10.07.2014 11:00 14,9 C 84 % 980,5 hPa 0,0 l/m 1,3 km/h W 12,2 C 14,9 C 0,7 km/h
10.07.2014 12:00 16,6 C 85 % 980,7 hPa 0,0 l/m 3,9 km/h W 14,1 C 16,6 C 2,2 km/h
10.07.2014 13:00 16,9 C 84 % 981,0 hPa 0,0 l/m 1,3 km/h SW 14,2 C 16,9 C 0,7 km/h
10.07.2014 14:00 17,3 C 82 % 981,4 hPa 0,0 l/m 0,0 km/h S-SW 14,2 C 17,3 C 0,0 km/h
10.07.2014 15:00 17,8 C 81 % 981,8 hPa 0,0 l/m 0,0 km/h W 14,5 C 17,8 C 0,0 km/h
10.07.2014 16:00 17,3 C 82 % 982,2 hPa 0,0 l/m 0,0 km/h W-NW 14,2 C 17,3 C 0,0 km/h
10.07.2014 17:00 16,4 C 83 % 982,3 hPa 0,0 l/m 0,0 km/h NW 13,5 C 16,4 C 0,0 km/h
10.07.2014 18:00 16,6 C 84 % 982,6 hPa 0,0 l/m 0,0 km/h SO 13,9 C 16,6 C 0,0 km/h
10.07.2014 19:00 17,2 C 83 % 982,8 hPa 0,0 l/m 0,0 km/h NO 14,3 C 17,2 C 0,0 km/h
10.07.2014 20:00 16,6 C 84 % 983,0 hPa 0,0 l/m 0,0 km/h NO 13,9 C 16,6 C 0,0 km/h
10.07.2014 21:00 15,6 C 85 % 983,8 hPa 0,0 l/m 0,0 km/h SO 13,1 C 15,6 C 0,0 km/h
10.07.2014 22:00 15,1 C 85 % 984,1 hPa 0,0 l/m 0,0 km/h N-NO 12,6 C 15,1 C 0,0 km/h
10.07.2014 23:00 14,3 C 84 % 984,1 hPa 0,0 l/m 0,0 km/h N-NO 11,6 C 14,3 C 0,0 km/h
11.07.2014 00:00 14,5 C 83 % 983,9 hPa 0,0 l/m 0,0 km/h N-NO 11,6 C 14,5 C 0,0 km/h
11.07.2014 01:00 14,6 C 82 % 984,0 hPa 0,0 l/m 0,0 km/h SO 11,6 C 14,6 C 0,0 km/h
11.07.2014 02:00 14,4 C 81 % 983,9 hPa 1,1 l/m 0,0 km/h S-SO 11,2 C 14,4 C 0,0 km/h
11.07.2014 03:00 14,3 C 80 % 983,1 hPa 0,8 l/m 0,0 km/h NO 10,9 C 14,3 C 0,0 km/h
11.07.2014 04:00 14,5 C 78 % 983,3 hPa 0,0 l/m 0,0 km/h NO 10,7 C 14,5 C 0,0 km/h
11.07.2014 05:00 14,7 C 78 % 983,5 hPa 0,0 l/m 0,0 km/h NO 10,9 C 14,7 C 0,0 km/h
11.07.2014 06:00 14,9 C 77 % 983,9 hPa 0,0 l/m 0,0 km/h NO 10,9 C 14,9 C 0,0 km/h
11.07.2014 07:00 15,3 C 77 % 984,0 hPa 0,0 l/m 0,0 km/h O-SO 11,3 C 15,3 C 0,0 km/h
11.07.2014 08:00 17,3 C 76 % 984,3 hPa 0,0 l/m 0,0 km/h W-NW 13,0 C 17,3 C 0,0 km/h
11.07.2014 09:00 18,6 C 81 % 984,5 hPa 0,0 l/m 0,0 km/h SW 15,3 C 18,6 C 0,0 km/h
11.07.2014 10:00 20,1 C 85 % 984,5 hPa 0,0 l/m 0,0 km/h S-SW 17,5 C 20,1 C 0,0 km/h
11.07.2014 11:00 19,4 C 83 % 984,6 hPa 0,0 l/m 0,0 km/h NW 16,4 C 19,4 C 0,0 km/h
11.07.2014 12:00 21,4 C 81 % 984,5 hPa 0,0 l/m 0,0 km/h N-NO 18,0 C 21,4 C 0,0 km/h
11.07.2014 13:00 23,3 C 74 % 984,3 hPa 0,0 l/m 0,0 km/h W 18,4 C 23,3 C 0,0 km/h
11.07.2014 14:00 25,9 C 65 % 984,2 hPa 0,0 l/m 0,0 km/h W-NW 18,8 C 25,9 C 0,0 km/h
11.07.2014 15:00 28,8 C 53 % 983,6 hPa 0,0 l/m 1,9 km/h W-NW 18,2 C 28,8 C 1,1 km/h
11.07.2014 16:00 28,9 C 51 % 983,6 hPa 0,0 l/m 2,6 km/h W-NW 17,7 C 28,9 C 1,4 km/h
11.07.2014 17:00 22,4 C 69 % 983,5 hPa 0,0 l/m 18,1 km/h S-SO 16,4 C 19,6 C 10,1 km/h
11.07.2014 18:00 20,5 C 75 % 983,5 hPa 0,2 l/m 0,0 km/h N-NO 15,9 C 20,5 C 0,0 km/h
11.07.2014 19:00 16,5 C 84 % 984,0 hPa 2,3 l/m 0,0 km/h N-NO 13,8 C 16,5 C 0,0 km/h
11.07.2014 20:00 16,8 C 84 % 984,5 hPa 0,0 l/m 0,0 km/h NW 14,1 C 16,8 C 0,0 km/h
11.07.2014 21:00 16,6 C 83 % 984,9 hPa 0,0 l/m 0,0 km/h SW 13,7 C 16,6 C 0,0 km/h
11.07.2014 22:00 16,6 C 83 % 985,7 hPa 0,0 l/m 0,0 km/h SW 13,7 C 16,6 C 0,0 km/h
11.07.2014 23:00 16,5 C 82 % 985,8 hPa 0,5 l/m 0,0 km/h SW 13,4 C 16,5 C 0,0 km/h
12.07.2014 00:00 16,4 C 81 % 985,8 hPa 0,8 l/m 0,0 km/h SW 13,1 C 16,4 C 0,0 km/h
12.07.2014 01:00 15,9 C 81 % 985,5 hPa 0,5 l/m 0,0 km/h N-NW 12,6 C 15,9 C 0,0 km/h
12.07.2014 02:00 15,9 C 79 % 985,4 hPa 0,0 l/m 0,0 km/h N-NW 12,3 C 15,9 C 0,0 km/h
12.07.2014 03:00 15,9 C 79 % 985,1 hPa 0,0 l/m 0,0 km/h N-NW 12,3 C 15,9 C 0,0 km/h
12.07.2014 04:00 15,8 C 78 % 985,1 hPa 0,0 l/m 0,0 km/h W-SW 12,0 C 15,8 C 0,0 km/h
12.07.2014 05:00 15,6 C 78 % 984,8 hPa 0,0 l/m 0,0 km/h S 11,8 C 15,6 C 0,0 km/h
12.07.2014 06:00 15,5 C 78 % 985,0 hPa 0,0 l/m 0,0 km/h SW 11,7 C 15,5 C 0,0 km/h
12.07.2014 07:00 16,2 C 77 % 985,0 hPa 0,0 l/m 0,0 km/h W 12,2 C 16,2 C 0,0 km/h
12.07.2014 08:00 16,6 C 80 % 984,9 hPa 0,0 l/m 1,3 km/h W 13,1 C 16,6 C 0,7 km/h
12.07.2014 09:00 17,1 C 84 % 985,1 hPa 0,0 l/m 0,0 km/h S 14,4 C 17,1 C 0,0 km/h
12.07.2014 10:00 20,4 C 84 % 985,0 hPa 0,0 l/m 0,6 km/h N-NW 17,6 C 20,4 C 0,4 km/h
12.07.2014 11:00 21,4 C 76 % 984,6 hPa 0,0 l/m 0,0 km/h W 17,0 C 21,4 C 0,0 km/h
12.07.2014 12:00 24,3 C 69 % 984,6 hPa 0,0 l/m 0,0 km/h N-NO 18,2 C 24,3 C 0,0 km/h
12.07.2014 13:00 26,4 C 61 % 984,1 hPa 0,0 l/m 0,0 km/h W-SW 18,3 C 26,4 C 0,0 km/h
12.07.2014 14:00 27,9 C 56 % 983,6 hPa 0,0 l/m 3,2 km/h W-NW 18,3 C 27,9 C 1,8 km/h
12.07.2014 15:00 25,6 C 55 % 983,8 hPa 0,0 l/m 16,2 km/h W 15,9 C 23,9 C 9,0 km/h
12.07.2014 16:00 30,5 C 46 % 983,6 hPa 0,0 l/m 2,6 km/h W-SW 17,5 C 30,5 C 1,4 km/h
12.07.2014 17:00 23,9 C 61 % 983,1 hPa 0,0 l/m 6,5 km/h W 15,9 C 23,9 C 3,6 km/h
12.07.2014 18:00 25,6 C 60 % 983,2 hPa 0,0 l/m 9,1 km/h W-SW 17,2 C 25,0 C 5,0 km/h
12.07.2014 19:00 22,2 C 70 % 983,4 hPa 0,0 l/m 0,0 km/h NW 16,5 C 22,2 C 0,0 km/h
12.07.2014 20:00 17,4 C 80 % 984,0 hPa 1,1 l/m 0,0 km/h SO 13,9 C 17,4 C 0,0 km/h
12.07.2014 21:00 15,2 C 85 % 984,8 hPa 1,6 l/m 0,0 km/h SO 12,7 C 15,2 C 0,0 km/h
12.07.2014 22:00 14,9 C 85 % 985,3 hPa 0,2 l/m 0,0 km/h SO 12,4 C 14,9 C 0,0 km/h
12.07.2014 23:00 15,3 C 85 % 985,2 hPa 0,0 l/m 0,0 km/h SO 12,8 C 15,3 C 0,0 km/h
13.07.2014 00:00 15,4 C 85 % 985,1 hPa 0,0 l/m 0,0 km/h SO 12,9 C 15,4 C 0,0 km/h
13.07.2014 01:00 15,5 C 85 % 985,0 hPa 0,0 l/m 0,0 km/h SO 13,0 C 15,5 C 0,0 km/h
13.07.2014 02:00 15,4 C 85 % 984,6 hPa 0,0 l/m 0,0 km/h N-NO 12,9 C 15,4 C 0,0 km/h
13.07.2014 03:00 14,4 C 85 % 984,4 hPa 0,0 l/m 0,0 km/h N-NO 11,9 C 14,4 C 0,0 km/h
13.07.2014 04:00 14,1 C 84 % 984,5 hPa 0,0 l/m 0,0 km/h N-NO 11,4 C 14,1 C 0,0 km/h
13.07.2014 05:00 13,6 C 84 % 984,4 hPa 0,0 l/m 0,0 km/h S-SW 10,9 C 13,6 C 0,0 km/h
13.07.2014 06:00 14,5 C 83 % 984,2 hPa 0,0 l/m 0,0 km/h O-SO 11,6 C 14,5 C 0,0 km/h
13.07.2014 07:00 15,3 C 82 % 983,9 hPa 0,0 l/m 0,0 km/h S-SW 12,2 C 15,3 C 0,0 km/h
13.07.2014 08:00 18,1 C 76 % 983,6 hPa 0,0 l/m 0,0 km/h W-NW 13,8 C 18,1 C 0,0 km/h
13.07.2014 09:00 23,1 C 72 % 983,8 hPa 0,0 l/m 13,0 km/h W-SW 17,8 C 21,4 C 7,2 km/h
13.07.2014 10:00 21,1 C 74 % 983,6 hPa 0,0 l/m 18,1 km/h S-SO 16,3 C 18,0 C 10,1 km/h
13.07.2014 11:00 21,9 C 72 % 983,4 hPa 0,0 l/m 12,3 km/h SW 16,6 C 20,1 C 6,8 km/h
13.07.2014 12:00 24,2 C 63 % 983,1 hPa 0,0 l/m 7,1 km/h S 16,7 C 24,0 C 4,0 km/h
13.07.2014 13:00 23,6 C 63 % 982,8 hPa 0,0 l/m 31,8 km/h S 16,1 C 19,6 C 17,6 km/h
13.07.2014 14:00 26,1 C 54 % 982,2 hPa 0,0 l/m 22,0 km/h S 16,0 C 23,9 C 12,2 km/h
13.07.2014 15:00 25,9 C 55 % 982,0 hPa 0,0 l/m 17,5 km/h W-SW 16,2 C 24,1 C 9,7 km/h
13.07.2014 16:00 24,6 C 55 % 981,7 hPa 0,0 l/m 21,4 km/h S-SW 14,9 C 22,0 C 11,9 km/h
13.07.2014 17:00 24,9 C 56 % 981,6 hPa 0,0 l/m 24,0 km/h W-SW 15,5 C 22,1 C 13,3 km/h
13.07.2014 18:00 23,6 C 61 % 981,8 hPa 0,0 l/m 39,5 km/h W 15,6 C 19,1 C 22,0 km/h
13.07.2014 19:00 21,3 C 67 % 981,6 hPa 0,0 l/m 2,6 km/h W 14,9 C 21,3 C 1,4 km/h
13.07.2014 20:00 19,6 C 72 % 982,1 hPa 0,0 l/m 8,4 km/h S-SW 14,4 C 18,8 C 4,7 km/h
13.07.2014 21:00 18,9 C 73 % 982,3 hPa 0,0 l/m 11,9 km/h W 13,9 C 16,8 C 11,9 km/h
13.07.2014 22:00 17,8 C 78 % 982,7 hPa 0,0 l/m 1,1 km/h SW 13,9 C 17,8 C 1,1 km/h
13.07.2014 23:00 17,0 C 82 % 983,0 hPa 0,0 l/m 0,0 km/h S 13,9 C 17,0 C 0,0 km/h
Min-Datum _ 10.07.14 12.07.14 10.07.14 - 07.07.14 - 10.07.14 10.07.14 07.07.14
_ Min-Zeit 01:19 16:19 06:19 - 00:19 - 05:19 05:19 00:19
Minimum _ 11,1 C 46 % 979,1 hPa - 0,0 km/h - 7,7 C 6,6 C 0,0 km/h
Max-Datum _ 12.07.14 08.07.14 07.07.14 11.07.14 13.07.14 - 07.07.14 12.07.14 13.07.14
_ Max-Zeit 16:19 21:19 09:19 19:19 18:19 - 13:19 16:19 18:19
Maximum _ 30,5 C 85 % 987,7 hPa 2,3 l/m 39,5 km/h
W
- 18,8 C 30,5 C 22,0 km/h
W
Durchschnitt _ 17,1 C 78 % 983,4 hPa #16,3 l/m 3,8 km/h W-SW 13,0 C 16,6 C 2,4 km/h
www.sexauwetter.de